Prospect Heights, Illinois
Current Conditions -  °F | °C
As of 10:52 AM on Wednesday 22 Oct 2014 (Local Time) from KPWK Reporting Station
Broken Clouds Broken Clouds  
Wind Chill: 53°   Ceiling: 2500
Heat Index: 53°   Visibility: 10mi
Dew Point: 40°   Wind: 7mph
Humidity: 61%   Direction: 120°ESE
Pressure: 30.38"   Gusts: NA
Location:  42.1°N, 87.94°W
Report Text: KPWK 221552Z 12006KT 10SM BKN025 12/04 A3038 RMK AO2 SLP288 T01170044
Loading
Personal Weather Stations






























Interactive Weather Map
Tropical Storm Tracking
New forecast layout! Learn more

10-Day Weather Forecast

Advertisements
Track Severe Weather on mobile